US Aviators Van Nuys Flight School Los Angeles Pilot school at Van Nuys Simulator Flight Training Profesional Pilot Instruction Learn to Fly

U.S. Aviators

Learn to fly here! (818) 779-2105

Weather at Van Nuys Airport

Observed:Tue Feb 9, 15:51 PST
Age:36 min ago
Wind:N at 10 mph, gusting to 13 mph
Visibility:10 miles
Clouds:Clear skies
Temperature:84°F (29°C)
Dewpoint:28°F (-2°C)
Humidity:13%
Barometer:1019 hPa (30.09 in Hg)

METAR

KVNY 092351Z 35016G21KT 10SM CLR 29/M02 A3009 RMK AO2 SLP180 T02891022 10306 20250 55008